Time;durP1;ratioP1;P1;durP2;ratioP2;P2;SDS_P1;SDS_P2;PMS_P1;PMS_P2;Temp;Humidity;BMP_temperature;BMP_pressure;BME280_temperature;BME280_humidity;BME280_pressure;Samples;Min_cycle;Max_cycle;Signal;HPM_P1;HPM_P2
2022/02/02 00:00:16;;;;;;;6.03;2.00;;;22.30;34.80;;;;;;5044934;28;20033;-50
2022/02/02 00:03:05;;;;;;;6.72;2.28;;;22.30;34.80;;;;;;5053907;28;20029;-52
2022/02/02 00:05:37;;;;;;;7.38;2.00;;;22.30;34.90;;;;;;5041085;28;20448;-51
2022/02/02 00:08:08;;;;;;;4.75;2.03;;;22.30;34.90;;;;;;5053577;28;20178;-51
2022/02/02 00:18:51;;;;;;;7.57;2.47;;;22.20;34.90;;;;;;5049282;28;20463;-46
2022/02/02 00:23:47;;;;;;;5.00;1.95;;;22.20;34.90;;;;;;5041962;28;20398;-46
2022/02/02 00:26:19;;;;;;;7.38;2.40;;;22.20;34.90;;;;;;5050203;28;20432;-50
2022/02/02 00:28:49;;;;;;;4.63;1.90;;;22.20;35.00;;;;;;5037344;28;20036;-48
2022/02/02 00:31:28;;;;;;;6.38;2.22;;;22.20;35.60;;;;;;5035086;28;20029;-47
2022/02/02 00:34:04;;;;;;;7.82;2.20;;;22.20;35.00;;;;;;5053337;28;20344;-47
2022/02/02 00:36:56;;;;;;;6.43;2.50;;;22.20;35.00;;;;;;5037298;28;20447;-44
2022/02/02 00:39:16;;;;;;;4.93;2.10;;;22.20;35.00;;;;;;5034807;28;20049;-48
2022/02/02 00:41:42;;;;;;;7.60;2.60;;;22.20;35.00;;;;;;5018795;28;20041;-46
2022/02/02 00:44:09;;;;;;;6.20;2.20;;;22.20;35.10;;;;;;5054978;28;20024;-48
2022/02/02 00:46:36;;;;;;;6.22;2.47;;;22.20;35.10;;;;;;5034731;28;20452;-45
2022/02/02 00:49:04;;;;;;;6.50;2.10;;;22.20;35.10;;;;;;5048777;28;20028;-46
2022/02/02 00:51:45;;;;;;;6.40;2.33;;;22.20;35.10;;;;;;5053668;28;20349;-45
2022/02/02 00:54:16;;;;;;;6.47;2.13;;;22.10;35.10;;;;;;5035315;28;20037;-50
2022/02/02 00:56:42;;;;;;;5.32;1.90;;;22.20;35.20;;;;;;5043123;28;20123;-50
2022/02/02 00:59:08;;;;;;;6.22;2.53;;;22.20;35.20;;;;;;5055293;28;20068;-46
2022/02/02 01:01:34;;;;;;;5.18;2.25;;;22.10;35.10;;;;;;5052038;28;20025;-46
2022/02/02 01:04:00;;;;;;;5.90;2.28;;;22.10;35.10;;;;;;5054980;28;20052;-46
2022/02/02 01:06:29;;;;;;;7.18;2.70;;;22.10;35.20;;;;;;5046773;28;20326;-46
2022/02/02 01:19:38;;;;;;;6.57;2.20;;;22.00;35.20;;;;;;5047482;28;20040;-45
2022/02/02 01:22:17;;;;;;;5.38;1.90;;;22.00;35.20;;;;;;5042339;28;20341;-47
2022/02/02 01:27:51;;;;;;;6.72;2.28;;;22.00;35.20;;;;;;5039066;28;20040;-46
2022/02/02 01:30:17;;;;;;;5.88;2.42;;;22.00;35.20;;;;;;5051986;28;20305;-52
2022/02/02 01:32:43;;;;;;;5.72;2.10;;;22.00;35.20;;;;;;5052918;28;20033;-45
2022/02/02 01:35:14;;;;;;;7.28;3.13;;;22.00;35.20;;;;;;5054328;28;20479;-46
2022/02/02 01:37:45;;;;;;;6.57;2.55;;;22.00;35.20;;;;;;5045163;28;20426;-48
2022/02/02 01:40:27;;;;;;;5.25;2.08;;;22.00;35.20;;;;;;5034926;28;20471;-54
2022/02/02 01:43:02;;;;;;;6.97;2.30;;;22.00;35.20;;;;;;5053348;28;20047;-49
2022/02/02 01:45:35;;;;;;;5.88;2.25;;;22.00;35.20;;;;;;5036973;28;20124;-47
2022/02/02 01:48:20;;;;;;;7.45;2.50;;;22.00;35.20;;;;;;5039080;28;20075;-45
2022/02/02 01:55:41;;;;;;;7.22;2.25;;;22.00;35.20;;;;;;5053463;28;20095;-47
2022/02/02 01:58:28;;;;;;;6.10;2.03;;;22.00;35.10;;;;;;5047908;28;20029;-47
2022/02/02 02:00:54;;;;;;;6.20;2.35;;;22.00;35.00;;;;;;5051784;28;20066;-49
2022/02/02 02:03:20;;;;;;;7.40;2.35;;;22.00;35.10;;;;;;5035094;28;20040;-51
2022/02/02 02:05:46;;;;;;;6.70;2.30;;;22.00;35.00;;;;;;5051474;28;20340;-54
2022/02/02 02:08:12;;;;;;;6.28;2.03;;;22.00;35.00;;;;;;5036177;28;20140;-53
2022/02/02 02:10:38;;;;;;;5.88;2.45;;;22.00;34.90;;;;;;5050439;28;20378;-55
2022/02/02 02:13:10;;;;;;;7.85;2.75;;;22.00;34.90;;;;;;5039881;28;20025;-53
2022/02/02 02:15:36;;;;;;;5.90;2.58;;;22.00;34.90;;;;;;5048219;28;20033;-51
2022/02/02 02:18:03;;;;;;;6.88;2.38;;;22.00;34.80;;;;;;5048974;28;20029;-48
2022/02/02 02:20:29;;;;;;;7.40;2.78;;;22.00;34.80;;;;;;5050954;28;20041;-48
2022/02/02 02:22:55;;;;;;;6.05;2.65;;;22.10;34.80;;;;;;5042451;28;20024;-49
2022/02/02 02:25:23;;;;;;;5.45;2.33;;;22.10;34.80;;;;;;5054038;28;20027;-47
2022/02/02 02:27:50;;;;;;;5.47;2.35;;;22.10;34.80;;;;;;5035066;28;20029;-49
2022/02/02 02:30:27;;;;;;;5.25;1.95;;;22.10;34.80;;;;;;5029439;28;20013;-47
2022/02/02 02:36:18;;;;;;;6.05;2.22;;;22.00;34.70;;;;;;5050734;28;20021;-51
2022/02/02 03:00:37;;;;;;;4.55;1.77;;;22.00;34.90;;;;;;5021347;28;20045;-48
2022/02/02 03:30:08;;;;;;;4.80;2.05;;;21.90;34.70;;;;;;5048028;28;20420;-45
2022/02/02 04:07:45;;;;;;;4.93;2.05;;;21.90;34.50;;;;;;5046922;28;20350;-47
2022/02/02 04:10:11;;;;;;;5.25;2.15;;;21.90;34.50;;;;;;5056215;28;20110;-50
2022/02/02 04:51:19;;;;;;;5.00;1.88;;;21.80;34.40;;;;;;5046967;28;20044;-48
2022/02/02 04:58:08;;;;;;;4.95;1.90;;;21.80;34.40;;;;;;5035989;28;20345;-50
2022/02/02 05:21:39;;;;;;;7.28;2.20;;;21.80;34.40;;;;;;5049228;28;20062;-49
2022/02/02 05:25:09;;;;;;;6.38;2.08;;;21.80;34.40;;;;;;5051191;28;20032;-49
2022/02/02 05:48:44;;;;;;;3.50;1.58;;;21.70;34.50;;;;;;5035310;28;20043;-47
2022/02/02 05:53:38;;;;;;;5.20;1.80;;;21.70;34.50;;;;;;5053707;28;20056;-50
2022/02/02 05:56:06;;;;;;;3.40;1.60;;;21.70;34.50;;;;;;5048264;28;20041;-48
2022/02/02 05:58:36;;;;;;;4.82;1.85;;;21.70;34.40;;;;;;5036618;28;20084;-46
2022/02/02 06:01:03;;;;;;;5.78;1.95;;;21.70;34.40;;;;;;5053746;28;20448;-47
2022/02/02 06:03:52;;;;;;;6.53;1.60;;;21.70;34.50;;;;;;5052626;28;20056;-47
2022/02/02 06:06:20;;;;;;;4.13;1.80;;;21.80;34.40;;;;;;5044282;28;20459;-47
2022/02/02 06:08:47;;;;;;;3.72;1.67;;;21.70;34.40;;;;;;5051131;28;20442;-44
2022/02/02 06:11:16;;;;;;;3.85;1.83;;;21.70;34.40;;;;;;5037904;28;20433;-52
2022/02/02 06:13:46;;;;;;;5.03;1.95;;;21.70;34.40;;;;;;5034532;28;20060;-47
2022/02/02 06:16:14;;;;;;;4.25;1.77;;;21.70;34.40;;;;;;5037644;28;20044;-46
2022/02/02 06:18:40;;;;;;;5.43;1.88;;;21.70;34.40;;;;;;5038171;28;20321;-46
2022/02/02 06:21:08;;;;;;;4.53;1.85;;;21.70;34.40;;;;;;5053753;28;20078;-49
2022/02/02 06:23:43;;;;;;;5.78;1.80;;;21.70;34.40;;;;;;5056269;28;20032;-47
2022/02/02 06:26:16;;;;;;;4.63;1.88;;;21.70;34.50;;;;;;5033441;28;20021;-51
2022/02/02 06:28:45;;;;;;;7.88;2.00;;;21.70;34.40;;;;;;5046385;28;20032;-53
2022/02/02 06:31:13;;;;;;;4.80;1.90;;;21.70;34.50;;;;;;5052554;28;20345;-53
2022/02/02 06:33:40;;;;;;;4.90;1.98;;;21.70;34.50;;;;;;5027353;28;20457;-50
2022/02/02 06:36:10;;;;;;;4.80;2.03;;;21.70;34.50;;;;;;5052603;28;20075;-53
2022/02/02 06:38:41;;;;;;;5.38;2.00;;;21.70;34.50;;;;;;5056848;28;20032;-48
2022/02/02 06:41:08;;;;;;;5.03;1.83;;;21.70;34.50;;;;;;5057098;28;20039;-52
2022/02/02 06:43:35;;;;;;;4.65;1.90;;;21.60;34.50;;;;;;5051863;28;20025;-49
2022/02/02 06:46:03;;;;;;;5.40;1.83;;;21.70;34.50;;;;;;5057616;28;20109;-49
2022/02/02 06:48:31;;;;;;;4.88;1.92;;;21.70;34.50;;;;;;5039363;28;20045;-47
2022/02/02 06:51:06;;;;;;;4.55;1.88;;;21.70;34.50;;;;;;5051125;28;20037;-51
2022/02/02 06:54:01;;;;;;;5.47;2.20;;;21.70;34.60;;;;;;5050878;28;20064;-48
2022/02/02 07:15:25;;;;;;;5.32;2.05;;;21.60;34.60;;;;;;5038613;28;20053;-47
2022/02/02 07:28:57;;;;;;;4.82;2.03;;;21.50;34.50;;;;;;5045865;28;20435;-46
2022/02/02 07:37:22;;;;;;;4.45;1.90;;;21.50;34.50;;;;;;5055908;28;20048;-47
2022/02/02 07:39:49;;;;;;;6.55;2.10;;;21.50;34.50;;;;;;5037398;28;20459;-49
2022/02/02 07:42:20;;;;;;;5.90;2.10;;;21.50;34.50;;;;;;5042756;28;20112;-46
2022/02/02 07:44:51;;;;;;;8.23;2.40;;;21.50;34.50;;;;;;5044949;28;20098;-48
2022/02/02 07:47:17;;;;;;;5.32;1.77;;;21.50;34.40;;;;;;5045398;28;20036;-46
2022/02/02 07:49:48;;;;;;;5.80;2.08;;;21.50;34.40;;;;;;5024801;28;20026;-52
2022/02/02 07:52:17;;;;;;;4.38;1.80;;;21.50;34.40;;;;;;5036093;28;20029;-48
2022/02/02 07:54:45;;;;;;;5.22;2.03;;;21.50;34.50;;;;;;5041607;28;20384;-49
2022/02/02 07:57:15;;;;;;;6.07;2.50;;;21.50;34.40;;;;;;5056419;28;20562;-47
2022/02/02 08:02:08;;;;;;;5.82;2.58;;;21.50;34.50;;;;;;5055021;28;20340;-46
2022/02/02 08:04:36;;;;;;;6.25;2.33;;;21.50;34.50;;;;;;5054745;28;20025;-45
2022/02/02 08:07:02;;;;;;;7.28;2.38;;;21.50;34.60;;;;;;5055526;28;20035;-49
2022/02/02 08:12:00;;;;;;;5.55;2.22;;;21.60;34.80;;;;;;5036463;28;20029;-45
2022/02/02 08:14:28;;;;;;;7.90;2.65;;;21.60;34.90;;;;;;5043983;28;20325;-47
2022/02/02 08:16:54;;;;;;;9.98;3.20;;;21.70;35.00;;;;;;5056611;28;20094;-50
2022/02/02 08:19:22;;;;;;;11.68;2.80;;;21.80;35.00;;;;;;5047877;28;20033;-47
2022/02/02 08:21:47;;;;;;;5.93;2.72;;;21.80;34.90;;;;;;5056542;28;20090;-49
2022/02/02 08:24:14;;;;;;;8.25;2.80;;;21.90;34.90;;;;;;5046957;28;20029;-46
2022/02/02 08:26:41;;;;;;;7.53;2.63;;;22.00;34.90;;;;;;5035893;28;20108;-45
2022/02/02 08:29:10;;;;;;;8.52;3.03;;;22.10;34.80;;;;;;5040227;28;20332;-44
2022/02/02 08:31:36;;;;;;;5.38;2.10;;;22.20;34.70;;;;;;5054635;28;20047;-49
2022/02/02 08:34:08;;;;;;;7.15;2.80;;;22.30;34.70;;;;;;5043851;28;20488;-49
2022/02/02 08:36:35;;;;;;;7.40;2.47;;;22.30;34.50;;;;;;5055874;28;20032;-48
2022/02/02 08:41:38;;;;;;;7.00;2.50;;;22.50;34.40;;;;;;5035581;28;20479;-52
2022/02/02 08:46:33;;;;;;;5.88;2.65;;;22.60;34.40;;;;;;5055691;28;20348;-49
2022/02/02 08:49:01;;;;;;;10.85;2.72;;;22.70;34.40;;;;;;5053908;28;20029;-48
2022/02/02 08:51:31;;;;;;;7.18;2.85;;;22.70;34.30;;;;;;5055354;28;20348;-48
2022/02/02 08:59:08;;;;;;;7.00;3.28;;;23.00;34.10;;;;;;5053537;28;20033;-49
2022/02/02 09:01:35;;;;;;;6.50;2.42;;;23.00;34.00;;;;;;5053172;28;20021;-50
2022/02/02 09:06:46;;;;;;;;;;;23.20;33.90;;;;;;5053925;28;20025;-50
2022/02/02 09:25:26;;;;;;;4.90;2.00;;;23.60;33.40;;;;;;5053644;28;20102;-50
2022/02/02 09:35:58;;;;;;;5.85;2.28;;;23.60;33.10;;;;;;5051785;28;20472;-44
2022/02/02 09:38:24;;;;;;;5.50;2.15;;;23.70;33.10;;;;;;5048235;28;20344;-45
2022/02/02 09:43:24;;;;;;;4.22;1.98;;;23.70;33.00;;;;;;5040797;28;20330;-50
2022/02/02 09:45:57;;;;;;;4.15;1.90;;;23.70;32.90;;;;;;5055048;28;20028;-51
2022/02/02 09:48:28;;;;;;;6.78;2.60;;;23.70;32.90;;;;;;5053645;28;20083;-45
2022/02/02 09:51:01;;;;;;;5.50;2.05;;;23.80;33.00;;;;;;5056353;28;20032;-49
2022/02/02 09:53:39;;;;;;;5.38;2.20;;;23.70;32.90;;;;;;5058018;28;20024;-45
2022/02/02 09:59:18;;;;;;;5.82;2.45;;;23.70;33.00;;;;;;5040163;28;20112;-46
2022/02/02 10:02:14;;;;;;;7.22;2.50;;;23.70;33.00;;;;;;5045797;28;20018;-51
2022/02/02 10:04:37;;;;;;;5.28;2.22;;;23.70;33.00;;;;;;5042376;28;20029;-46
2022/02/02 10:15:32;;;;;;;7.47;2.53;;;23.50;33.20;;;;;;5039212;28;20033;-49
2022/02/02 10:18:04;;;;;;;8.18;2.80;;;23.50;33.20;;;;;;5038203;28;20463;-48
2022/02/02 10:20:31;;;;;;;7.38;2.83;;;23.40;33.30;;;;;;5038292;28;20060;-44
2022/02/02 10:22:59;;;;;;;9.40;2.90;;;23.30;33.40;;;;;;5038336;28;20025;-48
2022/02/02 10:25:26;;;;;;;5.90;2.55;;;23.30;33.40;;;;;;5056788;28;20317;-46
2022/02/02 10:28:04;;;;;;;7.25;2.60;;;23.30;33.40;;;;;;5042080;28;20044;-44
2022/02/02 10:30:31;;;;;;;7.28;2.75;;;23.20;33.40;;;;;;5050930;28;20044;-47
2022/02/02 10:32:57;;;;;;;5.82;2.70;;;23.20;33.50;;;;;;5054138;28;20022;-53
2022/02/02 10:35:33;;;;;;;6.05;2.50;;;23.20;33.60;;;;;;5057885;28;20124;-51
2022/02/02 10:38:04;;;;;;;7.70;2.65;;;23.10;33.50;;;;;;5038885;28;20028;-51
2022/02/02 10:40:50;;;;;;;7.07;3.03;;;23.10;33.60;;;;;;5056038;28;20045;-48
2022/02/02 10:46:10;;;;;;;8.68;2.75;;;23.10;33.80;;;;;;5043019;28;20029;-46
2022/02/02 10:48:43;;;;;;;7.85;3.33;;;23.10;33.90;;;;;;5041790;28;20451;-46
2022/02/02 10:51:55;;;;;;;5.35;2.38;;;23.00;33.90;;;;;;5044055;28;20057;-51
2022/02/02 10:56:34;;;;;;;6.43;2.40;;;23.00;33.80;;;;;;5044710;28;20052;-54
2022/02/02 10:59:08;;;;;;;6.93;2.85;;;23.10;34.00;;;;;;5053323;28;20040;-54
2022/02/02 11:06:45;;;;;;;8.18;2.58;;;23.00;34.10;;;;;;5055317;28;20439;-50
2022/02/02 11:09:17;;;;;;;4.72;2.13;;;23.00;34.20;;;;;;5055960;28;20029;-50
2022/02/02 11:11:46;;;;;;;6.85;2.25;;;23.00;34.20;;;;;;5054986;28;20124;-51
2022/02/02 11:14:34;;;;;;;7.22;2.22;;;23.00;34.20;;;;;;5051882;28;20027;-49
2022/02/02 11:17:12;;;;;;;6.63;2.58;;;23.00;34.20;;;;;;5045525;28;20025;-49
2022/02/02 11:19:38;;;;;;;6.00;2.67;;;23.00;34.20;;;;;;5050392;28;20037;-60
2022/02/02 11:22:45;;;;;;;4.65;2.15;;;22.90;34.20;;;;;;5057041;28;20033;-52
2022/02/02 11:25:11;;;;;;;4.95;1.90;;;23.00;34.10;;;;;;5001261;28;20041;-49
2022/02/02 11:27:41;;;;;;;7.47;2.80;;;22.90;34.20;;;;;;5057423;28;20025;-51
2022/02/02 11:30:25;;;;;;;6.28;2.55;;;22.90;34.20;;;;;;5057419;28;20044;-49
2022/02/02 11:32:52;;;;;;;5.78;2.05;;;22.90;34.20;;;;;;5055199;28;20083;-50
2022/02/02 11:35:45;;;;;;;6.63;2.30;;;22.80;34.10;;;;;;5056571;28;20028;-52
2022/02/02 11:38:20;;;;;;;5.50;1.98;;;22.90;34.10;;;;;;5057072;28;20044;-50
2022/02/02 11:41:05;;;;;;;5.32;2.22;;;22.80;34.10;;;;;;5056634;28;20095;-50
2022/02/02 11:43:52;;;;;;;5.63;2.03;;;22.90;34.10;;;;;;5056797;28;20025;-48
2022/02/02 11:46:44;;;;;;;4.68;2.03;;;22.90;34.00;;;;;;5039237;28;20025;-51
2022/02/02 11:49:54;;;;;;;4.93;2.03;;;22.80;33.90;;;;;;5056774;28;20436;-48
2022/02/02 11:52:43;;;;;;;5.35;2.30;;;22.80;33.90;;;;;;5055081;28;20356;-50
2022/02/02 11:55:12;;;;;;;6.57;2.45;;;22.80;33.90;;;;;;5055509;28;20417;-52
2022/02/02 11:58:12;;;;;;;5.45;2.30;;;22.80;33.90;;;;;;5056707;28;20025;-49
2022/02/02 12:04:05;;;;;;;4.55;1.90;;;22.70;33.80;;;;;;5056517;28;20029;-49
2022/02/02 12:09:24;;;;;;;5.22;2.03;;;22.70;33.80;;;;;;5056786;28;20448;-51
2022/02/02 12:48:08;;;;;;;4.05;1.70;;;22.60;33.50;;;;;;5055206;28;20100;-48
2022/02/02 12:56:37;;;;;;;5.40;2.05;;;22.60;33.40;;;;;;5054853;28;20051;-48
2022/02/02 13:00:21;;;;;;;5.20;1.83;;;22.60;33.30;;;;;;4955412;29;20047;-49
2022/02/02 13:02:15;;;;;;;5.00;1.80;;;22.60;33.40;;;;;;5033582;28;20040;-48
2022/02/02 13:04:43;;;;;;;4.90;1.80;;;22.60;33.40;;;;;;5052923;28;20434;-53
2022/02/02 13:07:19;;;;;;;4.38;1.60;;;22.60;33.30;;;;;;5037538;28;20340;-55
2022/02/02 13:09:47;;;;;;;5.88;1.88;;;22.50;33.20;;;;;;5055449;28;20375;-54
2022/02/02 13:12:52;;;;;;;4.38;1.58;;;22.50;33.20;;;;;;5055591;28;20037;-53
2022/02/02 13:15:51;;;;;;;3.58;1.65;;;22.60;33.10;;;;;;5053052;28;20047;-53
2022/02/02 13:18:32;;;;;;;4.03;1.90;;;22.50;33.20;;;;;;5050225;28;20037;-53
2022/02/02 13:21:14;;;;;;;4.30;1.92;;;22.50;33.10;;;;;;5047980;28;20494;-53
2022/02/02 13:24:08;;;;;;;5.97;1.90;;;22.50;33.30;;;;;;5043590;28;20021;-50
2022/02/02 13:26:52;;;;;;;3.77;1.57;;;22.50;33.50;;;;;;5046173;28;20428;-52
2022/02/02 13:29:29;;;;;;;3.97;1.48;;;22.50;33.60;;;;;;5049128;28;20021;-52
2022/02/02 13:37:49;;;;;;;4.35;1.45;;;22.50;33.50;;;;;;5043677;28;20467;-48
2022/02/02 13:49:36;;;;;;;3.22;1.20;;;22.50;33.30;;;;;;5027406;28;20115;-53
2022/02/02 13:54:42;;;;;;;3.05;1.17;;;22.40;33.10;;;;;;5041910;28;20037;-51
2022/02/02 14:33:02;;;;;;;3.65;1.52;;;22.40;33.60;;;;;;5046177;28;20045;-46
2022/02/02 14:35:28;;;;;;;4.13;1.30;;;22.40;33.80;;;;;;5030276;28;20017;-46
2022/02/02 14:37:54;;;;;;;2.58;1.38;;;22.40;34.00;;;;;;5045346;28;20071;-47
2022/02/02 14:40:56;;;;;;;3.67;1.33;;;22.40;34.10;;;;;;5047402;28;20025;-47
2022/02/02 14:43:11;;;;;;;1.73;1.02;;;22.50;34.20;;;;;;5044162;28;20116;-51
2022/02/02 14:45:48;;;;;;;7.53;1.63;;;22.50;34.30;;;;;;5045695;28;20278;-49
2022/02/02 14:48:24;;;;;;;6.93;1.52;;;22.50;34.30;;;;;;5044420;28;20078;-47
2022/02/02 14:53:26;;;;;;;4.70;1.30;;;22.50;34.30;;;;;;5044753;28;20025;-55
2022/02/02 15:16:45;;;;;;;2.90;1.20;;;22.60;34.70;;;;;;5015201;28;20037;-57
2022/02/02 15:28:51;;;;;;;2.80;1.52;;;22.60;34.70;;;;;;5045437;28;20536;-56
2022/02/02 15:31:18;;;;;;;2.95;1.33;;;22.60;34.80;;;;;;5043255;28;20029;-52
2022/02/02 15:33:48;;;;;;;3.33;1.48;;;22.60;34.80;;;;;;5052115;28;20106;-57
2022/02/02 15:39:00;;;;;;;2.70;1.10;;;22.60;34.80;;;;;;5054153;28;20045;-60
2022/02/02 15:41:35;;;;;;;3.92;1.40;;;22.70;35.00;;;;;;5054175;28;20032;-50
2022/02/02 16:02:33;;;;;;;6.45;1.98;;;23.30;34.50;;;;;;5044533;28;20104;-54
2022/02/02 16:05:02;;;;;;;7.65;2.75;;;23.30;34.60;;;;;;5050162;28;20017;-50
2022/02/02 16:07:29;;;;;;;9.38;3.30;;;23.40;35.10;;;;;;5040097;28;20055;-54
2022/02/02 16:10:01;;;;;;;7.93;3.58;;;23.40;35.50;;;;;;5040766;28;20043;-55
2022/02/02 16:12:38;;;;;;;10.55;4.40;;;23.50;36.00;;;;;;5030448;28;20037;-54
2022/02/02 16:38:27;;;;;;;7.53;2.45;;;23.70;34.60;;;;;;5037739;28;20393;-49
2022/02/02 16:40:53;;;;;;;7.47;2.17;;;23.70;34.50;;;;;;5050912;28;20052;-47
2022/02/02 16:43:20;;;;;;;3.97;1.83;;;23.70;34.40;;;;;;5035072;28;20021;-50
2022/02/02 16:45:52;;;;;;;8.15;1.88;;;23.70;34.30;;;;;;5051830;28;20412;-48
2022/02/02 16:48:22;;;;;;;7.20;2.28;;;23.70;34.20;;;;;;5054283;28;20028;-51
2022/02/02 16:50:52;;;;;;;3.70;1.75;;;23.70;34.20;;;;;;5039356;28;20083;-53
2022/02/02 17:33:30;;;;;;;5.78;2.15;;;23.50;33.50;;;;;;5047099;28;20040;-49
2022/02/02 17:36:17;;;;;;;4.90;1.98;;;23.50;33.50;;;;;;5051563;28;20040;-50
2022/02/02 17:38:53;;;;;;;4.88;2.13;;;23.50;33.50;;;;;;5047964;28;20029;-54
2022/02/02 17:41:35;;;;;;;4.82;1.95;;;23.50;33.50;;;;;;5053066;28;20031;-50
2022/02/02 18:19:04;;;;;;;4.20;1.83;;;23.50;33.50;;;;;;5051261;28;20027;-51
2022/02/02 18:21:31;;;;;;;5.03;2.10;;;23.40;33.50;;;;;;5057769;28;20082;-49
2022/02/02 18:58:25;;;;;;;3.90;1.80;;;22.70;34.30;;;;;;5042702;28;19916;-45
2022/02/02 19:01:11;;;;;;;4.72;2.22;;;22.70;34.50;;;;;;5051565;28;20033;-51
2022/02/02 20:10:35;;;;;;;3.67;1.52;;;22.30;35.50;;;;;;5035926;28;20119;-49
2022/02/02 20:13:01;;;;;;;3.28;1.65;;;22.30;35.60;;;;;;5037386;28;20033;-53
2022/02/02 20:15:30;;;;;;;2.47;1.40;;;22.30;35.60;;;;;;5038108;28;20328;-48
2022/02/02 20:17:57;;;;;;;2.72;1.60;;;22.30;35.60;;;;;;5048119;28;20036;-47
2022/02/02 20:20:24;;;;;;;2.65;1.45;;;22.30;35.70;;;;;;5055505;28;20045;-49
2022/02/02 20:22:50;;;;;;;1.52;1.27;;;22.30;35.70;;;;;;5053883;28;20025;-53
2022/02/02 20:25:18;;;;;;;2.63;1.35;;;22.30;35.80;;;;;;5055169;28;20033;-51
2022/02/02 20:27:54;;;;;;;2.78;1.13;;;22.30;35.80;;;;;;5052803;28;20098;-50
2022/02/02 20:30:20;;;;;;;2.72;1.38;;;22.20;35.80;;;;;;5055416;28;20040;-48
2022/02/02 20:32:46;;;;;;;2.20;1.10;;;22.20;35.90;;;;;;5044729;28;20153;-49
2022/02/02 20:35:12;;;;;;;2.03;1.20;;;22.20;35.90;;;;;;5039042;28;20104;-52
2022/02/02 20:37:37;;;;;;;2.50;1.05;;;22.20;35.90;;;;;;5019836;28;20079;-48
2022/02/02 20:40:07;;;;;;;3.33;1.50;;;22.20;36.00;;;;;;5054394;28;20343;-55
2022/02/02 20:42:42;;;;;;;2.78;1.33;;;22.20;36.00;;;;;;5051977;28;20035;-52
2022/02/02 21:14:45;;;;;;;2.35;1.30;;;22.10;36.50;;;;;;5034492;28;20095;-49
2022/02/02 21:17:19;;;;;;;2.45;1.25;;;22.10;36.60;;;;;;5034974;28;20095;-46
2022/02/02 21:22:51;;;;;;;1.95;1.13;;;22.10;36.60;;;;;;4981166;28;20340;-50
2022/02/02 21:25:41;;;;;;;1.87;1.30;;;22.10;36.70;;;;;;5037197;28;20128;-50
2022/02/02 21:28:08;;;;;;;2.25;1.33;;;22.10;36.70;;;;;;5049902;28;20301;-48
2022/02/02 21:30:37;;;;;;;2.10;1.55;;;22.10;36.70;;;;;;5034317;28;20091;-52
2022/02/02 21:33:04;;;;;;;2.78;1.50;;;22.10;36.70;;;;;;5034072;28;20049;-48
2022/02/02 21:35:30;;;;;;;2.05;1.20;;;22.10;36.70;;;;;;5038409;28;20040;-50
2022/02/02 21:38:08;;;;;;;3.05;1.80;;;22.10;36.80;;;;;;5053470;28;20025;-50
2022/02/02 21:40:33;;;;;;;1.58;1.30;;;22.10;36.80;;;;;;5052361;28;20033;-55
2022/02/02 21:43:00;;;;;;;1.85;1.40;;;22.10;36.90;;;;;;5053876;28;20487;-47
2022/02/02 21:45:27;;;;;;;2.10;1.50;;;22.10;36.90;;;;;;5042297;28;20029;-50
2022/02/02 21:47:53;;;;;;;2.33;1.40;;;22.10;37.50;;;;;;5053883;28;20040;-49
2022/02/02 21:50:20;;;;;;;1.50;1.20;;;22.10;36.90;;;;;;5042908;28;20037;-46
2022/02/02 21:52:47;;;;;;;2.33;1.50;;;22.10;37.00;;;;;;5053709;28;20028;-49
2022/02/02 21:55:14;;;;;;;2.38;1.40;;;22.10;37.00;;;;;;5045625;28;20352;-51
2022/02/02 21:57:41;;;;;;;2.92;1.52;;;22.10;37.00;;;;;;5035905;28;20028;-49
2022/02/02 22:00:09;;;;;;;2.88;1.42;;;22.00;37.10;;;;;;5040862;28;20045;-46
2022/02/02 22:02:39;;;;;;;3.05;1.48;;;22.00;37.30;;;;;;5043778;28;20116;-55
2022/02/02 22:05:07;;;;;;;2.92;1.40;;;22.10;37.50;;;;;;5047353;28;20029;-52
2022/02/02 22:07:33;;;;;;;2.08;1.48;;;22.00;37.50;;;;;;5044714;28;20030;-51
2022/02/02 22:10:00;;;;;;;2.25;1.50;;;22.10;37.70;;;;;;5034574;28;20032;-54
2022/02/02 22:12:27;;;;;;;2.13;1.55;;;22.10;37.70;;;;;;5025036;28;20036;-49
2022/02/02 22:14:54;;;;;;;2.00;1.33;;;22.10;37.70;;;;;;5053307;28;20051;-52
2022/02/02 22:17:23;;;;;;;2.22;1.50;;;22.10;37.80;;;;;;5046718;28;20049;-48
2022/02/02 22:19:52;;;;;;;2.38;1.42;;;22.10;37.80;;;;;;5034738;28;20041;-51
2022/02/02 22:22:18;;;;;;;2.60;1.67;;;22.10;37.80;;;;;;5054100;28;20029;-53
2022/02/02 22:24:43;;;;;;;2.00;1.30;;;22.10;37.90;;;;;;5022853;28;20048;-48
2022/02/02 22:27:10;;;;;;;2.15;1.50;;;22.10;37.90;;;;;;5049749;28;20451;-52
2022/02/02 22:29:36;;;;;;;2.35;1.35;;;22.00;37.80;;;;;;5049695;28;20028;-49
2022/02/02 22:32:02;;;;;;;2.63;1.58;;;22.10;37.90;;;;;;5035517;28;20039;-54
2022/02/02 22:34:28;;;;;;;1.80;1.50;;;22.00;37.90;;;;;;5046973;28;20025;-49
2022/02/02 22:36:56;;;;;;;2.47;1.27;;;22.00;37.90;;;;;;5034562;28;20032;-48
2022/02/02 22:39:22;;;;;;;2.03;1.40;;;22.00;37.90;;;;;;5018187;28;20326;-49
2022/02/02 22:41:49;;;;;;;2.03;1.45;;;22.00;38.00;;;;;;5035145;28;20028;-48
2022/02/02 22:44:16;;;;;;;3.22;1.80;;;22.00;37.90;;;;;;5033800;28;20091;-49
2022/02/02 22:46:43;;;;;;;1.90;1.20;;;22.00;38.00;;;;;;5034528;28;20045;-49
2022/02/02 22:49:09;;;;;;;2.03;1.40;;;22.00;38.00;;;;;;5039992;28;20452;-48
2022/02/02 22:51:35;;;;;;;1.17;1.08;;;22.00;38.00;;;;;;5054473;28;20024;-50
2022/02/02 22:54:02;;;;;;;2.83;1.33;;;22.00;38.00;;;;;;5050117;28;20130;-49
2022/02/02 22:56:28;;;;;;;1.67;1.40;;;22.00;38.00;;;;;;5054323;28;20073;-49
2022/02/02 22:58:56;;;;;;;2.00;1.38;;;22.00;38.00;;;;;;5054816;28;20049;-45
2022/02/02 23:01:21;;;;;;;1.63;1.20;;;22.00;38.10;;;;;;5057733;28;20045;-52
2022/02/02 23:03:49;;;;;;;1.65;1.42;;;22.00;38.10;;;;;;5052682;28;20327;-50
2022/02/02 23:06:15;;;;;;;3.45;1.45;;;22.00;38.10;;;;;;5037923;28;20040;-54
2022/02/02 23:08:41;;;;;;;2.30;1.50;;;21.90;38.00;;;;;;5041864;28;20344;-47
2022/02/02 23:11:07;;;;;;;1.50;1.20;;;22.00;38.10;;;;;;5057133;28;20440;-47
2022/02/02 23:13:33;;;;;;;2.13;1.60;;;22.00;38.10;;;;;;5054723;28;20440;-51
2022/02/02 23:16:10;;;;;;;1.77;1.40;;;22.00;38.10;;;;;;5057858;28;20017;-48
2022/02/02 23:18:38;;;;;;;1.60;1.30;;;22.00;38.10;;;;;;5051561;28;20064;-47
2022/02/02 23:21:08;;;;;;;2.30;1.25;;;21.90;38.10;;;;;;5037522;28;20045;-49
2022/02/02 23:24:00;;;;;;;1.38;1.10;;;22.00;38.10;;;;;;5041764;28;20021;-49
2022/02/02 23:26:27;;;;;;;1.63;1.30;;;22.00;38.10;;;;;;5056890;28;20028;-51
2022/02/02 23:28:55;;;;;;;1.55;1.30;;;21.90;38.10;;;;;;5051557;28;20108;-54
2022/02/02 23:31:21;;;;;;;1.52;1.30;;;21.90;38.10;;;;;;5037091;28;20089;-49
2022/02/02 23:33:47;;;;;;;1.58;1.17;;;21.90;38.10;;;;;;5040510;28;20413;-49
2022/02/02 23:36:13;;;;;;;2.25;1.33;;;21.90;38.10;;;;;;5037107;28;20029;-45
2022/02/02 23:38:40;;;;;;;1.52;1.10;;;21.90;38.20;;;;;;5043755;28;20036;-46
2022/02/02 23:43:44;;;;;;;2.53;1.60;;;21.90;38.30;;;;;;5049173;28;20068;-45
2022/02/02 23:46:17;;;;;;;1.98;1.20;;;21.80;38.20;;;;;;5037495;28;20057;-45
2022/02/02 23:48:50;;;;;;;1.88;1.27;;;21.90;38.30;;;;;;5039629;28;20044;-46
2022/02/02 23:51:23;;;;;;;0.77;0.77;;;21.90;38.30;;;;;;5037432;28;20021;-47
2022/02/02 23:53:49;;;;;;;1.80;1.10;;;21.90;38.30;;;;;;5044786;28;20108;-47
2022/02/02 23:56:36;;;;;;;1.08;0.93;;;21.90;38.30;;;;;;5056108;28;20041;-52
2022/02/02 23:59:16;;;;;;;1.73;1.17;;;21.80;38.30;;;;;;5053149;28;20501;-45
